createdAt,value
2023-05-21T00:00:31.070Z,72.05
2023-05-21T00:03:18.790Z,71.91
2023-05-21T00:05:47.355Z,71.91
2023-05-21T00:08:15.107Z,72.33
2023-05-21T00:10:42.859Z,72.43
2023-05-21T00:13:10.556Z,71.38
2023-05-21T00:15:38.476Z,71.46
2023-05-21T00:18:06.364Z,71.48
2023-05-21T00:20:33.571Z,71.60
2023-05-21T00:23:05.401Z,72.13
2023-05-21T00:25:32.498Z,72.25
2023-05-21T00:27:59.924Z,73.00
2023-05-21T00:30:26.914Z,73.02
2023-05-21T00:32:54.694Z,72.79
2023-05-21T00:35:21.853Z,72.98
2023-05-21T00:37:50.162Z,73.12
2023-05-21T00:40:18.976Z,73.62
2023-05-21T00:42:48.248Z,73.84
2023-05-21T00:45:15.450Z,74.14
2023-05-21T00:47:44.221Z,74.22
2023-05-21T00:50:12.073Z,74.18
2023-05-21T00:52:42.212Z,74.34
2023-05-21T00:55:11.039Z,74.72
2023-05-21T00:57:39.958Z,74.78
2023-05-21T01:00:08.953Z,74.69
2023-05-21T01:02:38.271Z,75.09
2023-05-21T01:05:07.113Z,74.28
2023-05-21T01:07:36.743Z,73.98
2023-05-21T01:10:06.475Z,73.72
2023-05-21T01:12:35.807Z,73.55
2023-05-21T01:15:04.192Z,73.21
2023-05-21T01:17:32.141Z,73.13
2023-05-21T01:20:00.873Z,73.08
2023-05-21T01:22:32.564Z,71.74
2023-05-21T01:25:02.851Z,71.90
2023-05-21T01:27:30.464Z,71.71
2023-05-21T01:29:57.725Z,71.74
2023-05-21T01:32:38.546Z,71.59
2023-05-21T01:35:10.156Z,71.57
2023-05-21T01:38:04.680Z,71.37
2023-05-21T01:40:39.118Z,71.16
2023-05-21T01:43:08.368Z,70.96
2023-05-21T01:45:39.636Z,70.79
2023-05-21T01:48:09.333Z,70.76
2023-05-21T01:50:38.193Z,70.31
2023-05-21T01:53:06.249Z,70.53
2023-05-21T01:55:33.499Z,70.49
2023-05-21T01:58:02.459Z,70.28
2023-05-21T02:00:32.561Z,70.22
2023-05-21T02:02:59.870Z,70.19
2023-05-21T02:05:27.219Z,69.82
2023-05-21T02:07:55.157Z,69.35
2023-05-21T02:10:22.918Z,69.83
2023-05-21T02:12:50.242Z,70.09
2023-05-21T02:15:20.070Z,70.10
2023-05-21T02:17:47.518Z,70.13
2023-05-21T02:20:14.659Z,70.12
2023-05-21T02:22:44.708Z,70.09
2023-05-21T02:25:13.485Z,70.36
2023-05-21T02:27:42.525Z,70.63
2023-05-21T02:30:11.400Z,70.84
2023-05-21T02:32:42.419Z,70.67
2023-05-21T02:35:12.326Z,70.84
2023-05-21T02:37:41.288Z,71.10
2023-05-21T02:40:10.243Z,71.30
2023-05-21T02:42:40.091Z,71.56
2023-05-21T02:45:12.197Z,71.52
2023-05-21T02:47:42.060Z,71.85
2023-05-21T02:50:09.958Z,72.21
2023-05-21T02:52:44.188Z,72.38
2023-05-21T02:55:11.767Z,72.60
2023-05-21T02:57:38.712Z,72.42
2023-05-21T03:00:07.846Z,72.16
2023-05-21T03:02:35.474Z,72.17
2023-05-21T03:05:03.215Z,72.19
2023-05-21T03:07:30.091Z,72.06
2023-05-21T03:09:57.658Z,72.11
2023-05-21T03:12:24.566Z,71.93
2023-05-21T03:14:53.175Z,72.27
2023-05-21T03:17:20.889Z,72.31
2023-05-21T03:19:49.354Z,72.18
2023-05-21T03:22:16.735Z,72.11
2023-05-21T03:24:46.358Z,71.96
2023-05-21T03:27:13.735Z,72.25
2023-05-21T03:29:42.319Z,72.16
2023-05-21T03:32:09.662Z,72.42
2023-05-21T03:34:37.793Z,72.66
2023-05-21T03:37:05.111Z,72.29
2023-05-21T03:39:34.286Z,72.20
2023-05-21T03:42:01.443Z,72.24
2023-05-21T03:44:43.812Z,71.98
2023-05-21T03:47:22.233Z,72.00
2023-05-21T03:49:50.819Z,71.86
2023-05-21T03:52:18.000Z,71.37
2023-05-21T03:54:45.408Z,70.92
2023-05-21T03:57:12.555Z,70.30
2023-05-21T03:59:40.856Z,69.80
2023-05-21T04:02:07.925Z,69.50
2023-05-21T04:04:35.784Z,68.55
2023-05-21T04:07:04.816Z,67.73
2023-05-21T04:09:32.245Z,67.48
2023-05-21T04:11:59.101Z,66.77
2023-05-21T04:14:26.647Z,67.19
2023-05-21T04:16:53.524Z,66.49
2023-05-21T04:19:21.982Z,65.59
2023-05-21T04:21:49.896Z,65.09
2023-05-21T04:24:18.707Z,65.39
2023-05-21T04:26:57.471Z,64.41
2023-05-21T04:29:25.974Z,63.78
2023-05-21T04:31:53.431Z,62.49
2023-05-21T04:34:21.721Z,61.63
2023-05-21T04:36:48.696Z,60.82
2023-05-21T04:39:17.138Z,60.80
2023-05-21T04:41:44.344Z,60.39
2023-05-21T04:44:15.385Z,58.97
2023-05-21T04:46:46.241Z,56.74
2023-05-21T04:49:14.392Z,56.05
2023-05-21T04:51:41.693Z,55.02
2023-05-21T04:54:09.524Z,53.37
2023-05-21T04:56:36.421Z,53.70
2023-05-21T04:59:05.460Z,51.30
2023-05-21T05:01:35.485Z,52.38
2023-05-21T05:04:02.903Z,51.56
2023-05-21T05:06:31.190Z,49.71
2023-05-21T05:08:58.937Z,49.40
2023-05-21T05:11:26.866Z,49.06
2023-05-21T05:13:54.340Z,48.97
2023-05-21T05:16:25.365Z,48.67
2023-05-21T05:18:56.159Z,48.46
2023-05-21T05:21:24.060Z,49.03
2023-05-21T05:23:51.534Z,49.54
2023-05-21T05:26:21.763Z,49.97
2023-05-21T05:28:49.968Z,49.92
2023-05-21T05:31:17.186Z,50.86
2023-05-21T05:33:45.188Z,50.85
2023-05-21T05:36:12.544Z,51.14
2023-05-21T05:38:40.794Z,51.05
2023-05-21T05:41:07.830Z,50.75
2023-05-21T05:43:35.853Z,51.27
2023-05-21T05:46:03.571Z,50.94
2023-05-21T05:48:31.268Z,51.29
2023-05-21T05:50:59.759Z,51.24
2023-05-21T05:53:27.395Z,51.17
2023-05-21T05:55:54.986Z,51.81
2023-05-21T05:58:23.207Z,51.48
2023-05-21T06:01:16.533Z,52.28
2023-05-21T06:03:45.654Z,51.82
2023-05-21T06:06:17.230Z,51.25
2023-05-21T06:08:47.183Z,50.99
2023-05-21T06:11:17.331Z,51.65
2023-05-21T06:13:46.348Z,51.44
2023-05-21T06:16:16.165Z,52.20
2023-05-21T06:18:43.985Z,51.80
2023-05-21T06:21:11.659Z,52.04
2023-05-21T06:23:39.542Z,52.18
2023-05-21T06:26:07.813Z,51.76
2023-05-21T06:28:35.323Z,50.63
2023-05-21T06:31:02.549Z,50.39
2023-05-21T06:33:31.973Z,50.43
2023-05-21T06:35:59.127Z,50.61
2023-05-21T06:38:26.809Z,49.99
2023-05-21T06:40:53.761Z,49.12
2023-05-21T06:43:50.474Z,49.48
2023-05-21T06:46:32.882Z,49.67
2023-05-21T06:49:01.670Z,49.26
2023-05-21T06:51:28.970Z,48.86
2023-05-21T06:53:56.536Z,48.60
2023-05-21T06:56:23.770Z,48.47
2023-05-21T06:58:54.562Z,48.10
2023-05-21T07:01:24.768Z,48.09
2023-05-21T07:03:52.218Z,47.14
2023-05-21T07:06:19.228Z,46.83
2023-05-21T07:08:48.086Z,46.99
2023-05-21T07:11:15.564Z,46.77
2023-05-21T07:13:43.057Z,46.65
2023-05-21T07:16:10.243Z,46.45
2023-05-21T07:18:39.576Z,47.26
2023-05-21T07:21:06.543Z,47.22
2023-05-21T07:23:33.804Z,46.58
2023-05-21T07:26:01.275Z,45.47
2023-05-21T07:28:28.526Z,44.77
2023-05-21T07:30:56.039Z,45.65
2023-05-21T07:33:30.772Z,44.80
2023-05-21T07:35:57.820Z,44.71
2023-05-21T07:38:26.229Z,45.15
2023-05-21T07:40:53.300Z,44.30
2023-05-21T07:43:21.587Z,44.31
2023-05-21T07:45:48.707Z,44.73
2023-05-21T07:48:16.194Z,44.64
2023-05-21T07:50:56.605Z,44.24
2023-05-21T07:53:23.969Z,44.50
2023-05-21T07:55:52.024Z,43.77
2023-05-21T07:58:24.745Z,43.78
2023-05-21T08:00:53.242Z,43.06
2023-05-21T08:03:21.118Z,42.76
2023-05-21T08:05:50.625Z,41.77
2023-05-21T08:08:19.692Z,41.61
2023-05-21T08:10:48.040Z,40.65
2023-05-21T08:13:16.792Z,40.04
2023-05-21T08:15:45.388Z,39.95
2023-05-21T08:18:12.884Z,39.37
2023-05-21T08:20:43.044Z,39.23
2023-05-21T08:23:10.740Z,39.66
2023-05-21T08:25:42.503Z,38.79
2023-05-21T08:28:11.089Z,38.36
2023-05-21T08:30:38.227Z,38.36
2023-05-21T08:33:05.530Z,38.67
2023-05-21T08:35:34.544Z,39.40
2023-05-21T08:38:10.649Z,39.05
2023-05-21T08:41:06.951Z,39.02
2023-05-21T08:43:37.255Z,39.24
2023-05-21T08:46:05.524Z,39.05
2023-05-21T08:48:37.733Z,39.20
2023-05-21T08:51:06.105Z,39.68
2023-05-21T08:53:38.606Z,38.89
2023-05-21T08:56:09.952Z,38.44
2023-05-21T08:58:49.082Z,38.46
2023-05-21T09:01:19.992Z,38.16
2023-05-21T09:03:57.081Z,38.28
2023-05-21T09:06:27.312Z,38.39
2023-05-21T09:09:06.805Z,39.00
2023-05-21T09:11:42.272Z,39.20
2023-05-21T09:14:11.725Z,38.42
2023-05-21T09:17:02.988Z,38.12
2023-05-21T09:19:32.556Z,38.27
2023-05-21T09:22:04.187Z,38.12
2023-05-21T09:24:35.060Z,37.98
2023-05-21T09:27:07.505Z,37.31
2023-05-21T09:29:35.622Z,36.74
2023-05-21T09:32:07.506Z,37.37
2023-05-21T09:34:37.329Z,37.52
2023-05-21T09:37:13.413Z,36.03
2023-05-21T09:39:47.978Z,35.79
2023-05-21T09:42:15.160Z,36.10
2023-05-21T09:44:45.831Z,36.18
2023-05-21T09:47:13.067Z,36.24
2023-05-21T09:49:44.703Z,35.82
2023-05-21T09:52:12.030Z,35.86
2023-05-21T09:54:39.281Z,36.20
2023-05-21T09:57:06.886Z,34.46
2023-05-21T09:59:39.058Z,35.47
2023-05-21T10:02:21.199Z,34.76
2023-05-21T10:04:54.487Z,35.27
2023-05-21T10:07:26.411Z,35.55
2023-05-21T10:09:58.297Z,35.76
2023-05-21T10:12:27.815Z,35.00
2023-05-21T10:15:03.982Z,34.29
2023-05-21T10:17:31.788Z,34.05
2023-05-21T10:20:02.955Z,34.70
2023-05-21T10:22:31.790Z,33.93
2023-05-21T10:25:01.212Z,34.20
2023-05-21T10:27:32.293Z,34.28
2023-05-21T10:30:04.138Z,34.42
2023-05-21T10:32:32.785Z,34.27
2023-05-21T10:35:02.804Z,34.62
2023-05-21T10:37:30.594Z,34.80
2023-05-21T10:39:58.141Z,34.07
2023-05-21T10:42:31.685Z,34.47
2023-05-21T10:45:21.051Z,33.75
2023-05-21T10:47:48.274Z,33.17
2023-05-21T10:50:44.993Z,32.67
2023-05-21T10:53:33.900Z,33.29
2023-05-21T10:56:28.847Z,32.89
2023-05-21T10:59:01.844Z,33.71
2023-05-21T11:01:34.369Z,33.55
2023-05-21T11:04:02.388Z,33.96
2023-05-21T11:06:31.510Z,34.03
2023-05-21T11:09:11.497Z,33.09
2023-05-21T11:11:46.276Z,33.52
2023-05-21T11:14:26.895Z,33.82
2023-05-21T11:16:55.141Z,33.61
2023-05-21T11:19:22.558Z,33.60
2023-05-21T11:21:51.576Z,34.01
2023-05-21T11:24:20.251Z,33.93
2023-05-21T11:26:52.186Z,34.04
2023-05-21T11:29:20.476Z,33.59
2023-05-21T11:32:03.219Z,33.25
2023-05-21T11:34:41.272Z,32.92
2023-05-21T11:37:18.611Z,34.02
2023-05-21T11:39:50.615Z,34.21
2023-05-21T11:42:39.348Z,34.37
2023-05-21T11:45:07.286Z,33.83
2023-05-21T11:47:35.187Z,34.14
2023-05-21T11:50:04.204Z,34.58
2023-05-21T11:52:33.224Z,34.19
2023-05-21T11:55:02.796Z,33.85
2023-05-21T11:57:32.026Z,34.45
2023-05-21T12:00:01.817Z,34.33
2023-05-21T12:02:33.309Z,34.34
2023-05-21T12:05:00.961Z,34.07
2023-05-21T12:07:32.285Z,33.55
2023-05-21T12:10:01.355Z,35.04
2023-05-21T12:12:38.466Z,33.88
2023-05-21T12:15:13.846Z,34.22
2023-05-21T12:17:41.395Z,34.04
2023-05-21T12:20:10.829Z,34.22
2023-05-21T12:22:42.573Z,34.31
2023-05-21T12:25:11.023Z,34.11
2023-05-21T12:27:38.737Z,34.01
2023-05-21T12:30:06.833Z,34.04
2023-05-21T12:32:34.826Z,34.12
2023-05-21T12:35:03.040Z,34.06
2023-05-21T12:37:32.447Z,33.96
2023-05-21T12:40:01.461Z,34.29
2023-05-21T12:42:30.926Z,34.07
2023-05-21T12:44:58.535Z,34.87
2023-05-21T12:47:27.687Z,34.98
2023-05-21T12:50:00.350Z,35.13
2023-05-21T12:52:28.362Z,34.90
2023-05-21T12:54:57.080Z,34.90
2023-05-21T12:57:35.379Z,34.58
2023-05-21T13:00:06.702Z,34.26
2023-05-21T13:02:40.993Z,34.15
2023-05-21T13:05:17.464Z,34.28
2023-05-21T13:07:47.719Z,33.61
2023-05-21T13:10:18.601Z,33.58
2023-05-21T13:12:46.706Z,33.79
2023-05-21T13:15:14.641Z,33.59
2023-05-21T13:17:42.047Z,33.78
2023-05-21T13:20:15.348Z,33.11
2023-05-21T13:22:47.186Z,32.93
2023-05-21T13:25:20.451Z,32.56
2023-05-21T13:27:49.587Z,33.10
2023-05-21T13:30:17.082Z,32.46
2023-05-21T13:32:45.005Z,32.36
2023-05-21T13:35:12.809Z,32.67
2023-05-21T13:37:40.900Z,32.92
2023-05-21T13:40:16.891Z,32.61
2023-05-21T13:42:46.518Z,32.49
2023-05-21T13:45:15.917Z,32.44
2023-05-21T13:47:44.713Z,32.73
2023-05-21T13:50:13.602Z,32.72
2023-05-21T13:52:41.272Z,32.63
2023-05-21T13:55:10.134Z,32.54
2023-05-21T13:57:39.394Z,32.08
2023-05-21T14:00:09.333Z,32.14
2023-05-21T14:02:37.686Z,31.62
2023-05-21T14:05:05.127Z,32.20
2023-05-21T14:07:33.113Z,31.54
2023-05-21T14:10:01.001Z,31.78
2023-05-21T14:12:29.248Z,31.85
2023-05-21T14:14:58.696Z,31.94
2023-05-21T14:17:27.604Z,30.93
2023-05-21T14:19:55.761Z,30.86
2023-05-21T14:22:23.468Z,31.42
2023-05-21T14:24:52.083Z,30.72
2023-05-21T14:27:19.925Z,31.27
2023-05-21T14:29:48.498Z,31.05
2023-05-21T14:32:17.382Z,31.30
2023-05-21T14:34:44.938Z,31.03
2023-05-21T14:37:13.019Z,31.09
2023-05-21T14:39:40.192Z,31.05
2023-05-21T14:42:07.649Z,31.06
2023-05-21T14:44:35.132Z,30.79
2023-05-21T14:47:02.527Z,30.53
2023-05-21T14:49:29.777Z,28.10
2023-05-21T14:52:00.457Z,26.26
2023-05-21T14:54:27.461Z,25.73
2023-05-21T14:56:55.681Z,24.69
2023-05-21T14:59:23.606Z,23.63
2023-05-21T15:01:51.419Z,23.25
2023-05-21T15:04:18.553Z,22.82
2023-05-21T15:06:46.076Z,22.33
2023-05-21T15:09:13.366Z,21.97
2023-05-21T15:11:44.018Z,22.04
2023-05-21T15:14:11.246Z,22.01
2023-05-21T15:16:39.607Z,21.99
2023-05-21T15:19:06.810Z,21.87
2023-05-21T15:21:34.099Z,21.89
2023-05-21T15:24:01.674Z,21.87
2023-05-21T15:26:29.324Z,21.90
2023-05-21T15:28:56.403Z,21.91
2023-05-21T15:31:24.320Z,21.78
2023-05-21T15:33:51.611Z,21.72
2023-05-21T15:36:19.107Z,21.98
2023-05-21T15:38:46.619Z,21.46
2023-05-21T15:41:13.571Z,21.60
2023-05-21T15:43:42.265Z,21.22
2023-05-21T15:46:09.356Z,21.89
2023-05-21T15:48:37.141Z,22.55
2023-05-21T15:51:04.695Z,22.88
2023-05-21T15:53:32.003Z,22.58
2023-05-21T15:55:59.454Z,23.08
2023-05-21T15:58:27.355Z,23.31
2023-05-21T16:00:54.556Z,23.36
2023-05-21T16:03:21.901Z,23.47
2023-05-21T16:05:49.358Z,23.70
2023-05-21T16:08:16.864Z,24.11
2023-05-21T16:10:45.998Z,24.50
2023-05-21T16:13:13.717Z,24.93
2023-05-21T16:15:41.012Z,25.70
2023-05-21T16:18:10.087Z,26.04
2023-05-21T16:20:37.308Z,25.89
2023-05-21T16:23:06.667Z,26.24
2023-05-21T16:25:35.710Z,26.79
2023-05-21T16:28:03.860Z,27.24
2023-05-21T16:30:31.003Z,27.25
2023-05-21T16:32:58.565Z,27.31
2023-05-21T16:35:26.178Z,27.54
2023-05-21T16:37:53.587Z,28.42
2023-05-21T16:40:20.961Z,28.31
2023-05-21T16:42:48.624Z,28.30
2023-05-21T16:45:20.885Z,28.61
2023-05-21T16:47:50.046Z,28.71
2023-05-21T16:50:18.784Z,29.01
2023-05-21T16:52:46.591Z,28.96
2023-05-21T16:55:13.629Z,29.13
2023-05-21T16:57:43.253Z,29.80
2023-05-21T17:00:12.059Z,30.16
2023-05-21T17:02:39.783Z,30.21
2023-05-21T17:05:07.267Z,30.06
2023-05-21T17:07:39.571Z,30.16
2023-05-21T17:10:08.218Z,30.37
2023-05-21T17:12:36.212Z,30.80
2023-05-21T17:15:04.373Z,30.80
2023-05-21T17:17:32.082Z,31.19
2023-05-21T17:20:01.576Z,31.56
2023-05-21T17:22:29.326Z,31.65
2023-05-21T17:24:56.755Z,31.58
2023-05-21T17:27:23.982Z,31.91
2023-05-21T17:29:50.947Z,32.35
2023-05-21T17:32:18.391Z,32.67
2023-05-21T17:34:45.784Z,32.82
2023-05-21T17:37:13.175Z,33.18
2023-05-21T17:39:41.226Z,33.31
2023-05-21T17:42:09.984Z,33.42
2023-05-21T17:44:37.006Z,33.78
2023-05-21T17:47:07.215Z,34.16
2023-05-21T17:49:34.251Z,34.56
2023-05-21T17:52:04.401Z,34.71
2023-05-21T17:54:31.605Z,34.91
2023-05-21T17:56:58.380Z,35.35
2023-05-21T17:59:25.637Z,35.46
2023-05-21T18:01:52.869Z,35.89
2023-05-21T18:04:20.617Z,36.12
2023-05-21T18:06:47.708Z,36.32
2023-05-21T18:09:15.647Z,36.19
2023-05-21T18:11:44.521Z,36.46
2023-05-21T18:14:12.139Z,36.53
2023-05-21T18:16:40.880Z,36.53
2023-05-21T18:19:08.482Z,36.89
2023-05-21T18:21:35.657Z,36.90
2023-05-21T18:24:04.016Z,37.02
2023-05-21T18:26:31.285Z,37.15
2023-05-21T18:28:59.246Z,37.51
2023-05-21T18:31:26.293Z,38.06
2023-05-21T18:33:53.703Z,38.16
2023-05-21T18:36:20.731Z,38.63
2023-05-21T18:38:48.480Z,38.76
2023-05-21T18:41:15.504Z,39.01
2023-05-21T18:43:42.882Z,39.47
2023-05-21T18:46:09.827Z,39.29
2023-05-21T18:48:37.447Z,39.68
2023-05-21T18:51:04.522Z,39.95
2023-05-21T18:53:32.007Z,40.60
2023-05-21T18:55:59.012Z,40.52
2023-05-21T18:58:26.284Z,40.49
2023-05-21T19:00:53.283Z,40.67
2023-05-21T19:03:20.625Z,40.86
2023-05-21T19:05:48.025Z,40.74
2023-05-21T19:08:15.226Z,40.80
2023-05-21T19:10:42.417Z,41.05
2023-05-21T19:13:09.973Z,41.20
2023-05-21T19:15:37.391Z,41.43
2023-05-21T19:18:04.994Z,42.13
2023-05-21T19:20:32.052Z,41.95
2023-05-21T19:22:59.451Z,42.28
2023-05-21T19:25:27.529Z,42.46
2023-05-21T19:27:54.872Z,42.46
2023-05-21T19:30:22.112Z,42.42
2023-05-21T19:32:49.542Z,42.82
2023-05-21T19:35:16.588Z,43.31
2023-05-21T19:37:44.159Z,43.71
2023-05-21T19:40:11.458Z,44.20
2023-05-21T19:42:39.905Z,44.84
2023-05-21T19:45:09.637Z,44.67
2023-05-21T19:47:37.093Z,44.76
2023-05-21T19:50:04.446Z,44.79
2023-05-21T19:52:32.048Z,45.15
2023-05-21T19:55:04.887Z,45.88
2023-05-21T19:57:32.712Z,45.96
2023-05-21T20:00:01.068Z,46.34
2023-05-21T20:02:28.860Z,46.86
2023-05-21T20:04:57.736Z,46.92
2023-05-21T20:07:25.234Z,46.96
2023-05-21T20:09:52.566Z,47.55
2023-05-21T20:12:19.695Z,47.96
2023-05-21T20:14:47.591Z,48.38
2023-05-21T20:17:15.314Z,48.92
2023-05-21T20:19:44.105Z,49.28
2023-05-21T20:22:11.705Z,49.87
2023-05-21T20:24:38.712Z,49.96
2023-05-21T20:27:06.096Z,49.73
2023-05-21T20:29:33.280Z,50.14
2023-05-21T20:32:00.818Z,50.73
2023-05-21T20:34:28.365Z,51.32
2023-05-21T20:36:58.541Z,51.74
2023-05-21T20:39:27.833Z,51.85
2023-05-21T20:41:56.072Z,52.16
2023-05-21T20:44:23.096Z,52.08
2023-05-21T20:46:50.538Z,51.85
2023-05-21T20:49:17.857Z,52.09
2023-05-21T20:51:45.746Z,51.71
2023-05-21T20:54:12.916Z,52.07
2023-05-21T20:56:42.714Z,52.73
2023-05-21T20:59:11.362Z,52.78
2023-05-21T21:01:40.726Z,53.02
2023-05-21T21:04:08.979Z,52.31
2023-05-21T21:06:38.578Z,52.69
2023-05-21T21:09:06.231Z,53.94
2023-05-21T21:11:33.526Z,54.10
2023-05-21T21:14:02.635Z,54.46
2023-05-21T21:16:30.098Z,54.98
2023-05-21T21:18:57.278Z,54.89
2023-05-21T21:21:25.323Z,54.85
2023-05-21T21:23:52.433Z,55.26
2023-05-21T21:26:19.754Z,55.47
2023-05-21T21:28:46.858Z,55.77
2023-05-21T21:31:14.319Z,56.08
2023-05-21T21:33:41.708Z,56.10
2023-05-21T21:36:12.401Z,56.19
2023-05-21T21:38:39.665Z,56.52
2023-05-21T21:41:07.800Z,57.41
2023-05-21T21:43:34.864Z,57.82
2023-05-21T21:46:02.155Z,58.01
2023-05-21T21:48:29.507Z,58.35
2023-05-21T21:50:57.078Z,58.64
2023-05-21T21:53:24.074Z,58.53
2023-05-21T21:55:51.589Z,58.70
2023-05-21T21:58:19.036Z,58.97
2023-05-21T22:00:46.437Z,59.03
2023-05-21T22:03:14.659Z,59.26
2023-05-21T22:05:42.714Z,59.47
2023-05-21T22:08:09.784Z,59.51
2023-05-21T22:10:38.568Z,59.34
2023-05-21T22:13:06.073Z,59.22
2023-05-21T22:15:33.696Z,59.19
2023-05-21T22:18:02.512Z,58.90
2023-05-21T22:20:30.632Z,58.87
2023-05-21T22:22:58.096Z,58.93
2023-05-21T22:25:25.776Z,58.66
2023-05-21T22:27:52.748Z,58.99
2023-05-21T22:30:20.388Z,59.52
2023-05-21T22:32:47.880Z,60.21
2023-05-21T22:35:15.314Z,61.04
2023-05-21T22:37:42.399Z,61.70
2023-05-21T22:40:10.428Z,61.95
2023-05-21T22:42:38.073Z,62.05
2023-05-21T22:45:06.808Z,62.38
2023-05-21T22:47:36.958Z,62.43
2023-05-21T22:50:04.719Z,62.60
2023-05-21T22:52:32.059Z,63.17
2023-05-21T22:55:00.706Z,62.99
2023-05-21T22:57:28.133Z,63.48
2023-05-21T22:59:55.450Z,63.09
2023-05-21T23:02:22.784Z,63.18
2023-05-21T23:04:50.473Z,63.80
2023-05-21T23:07:17.514Z,63.62
2023-05-21T23:09:44.835Z,63.29
2023-05-21T23:12:12.201Z,63.49
2023-05-21T23:14:39.461Z,63.79
2023-05-21T23:17:07.547Z,63.68
2023-05-21T23:19:34.867Z,63.52
2023-05-21T23:22:02.213Z,63.97
2023-05-21T23:24:29.888Z,63.85
2023-05-21T23:27:01.996Z,63.91
2023-05-21T23:29:30.587Z,64.54
2023-05-21T23:31:57.952Z,64.83
2023-05-21T23:34:25.737Z,65.02
2023-05-21T23:36:53.009Z,65.33
2023-05-21T23:39:20.939Z,65.28
2023-05-21T23:41:48.318Z,65.45
2023-05-21T23:44:15.690Z,65.65
2023-05-21T23:46:43.120Z,65.45
2023-05-21T23:49:10.603Z,65.70
2023-05-21T23:51:38.338Z,65.66
2023-05-21T23:54:06.087Z,65.76
2023-05-21T23:56:33.670Z,65.86
2023-05-21T23:59:00.829Z,65.74
